Time;durP1;ratioP1;P1;durP2;ratioP2;P2;SDS_P1;SDS_P2;PMS_P1;PMS_P2;Temp;Humidity;BMP_temperature;BMP_pressure;BME280_temperature;BME280_humidity;BME280_pressure;Samples;Min_cycle;Max_cycle;Signal;HPM_P1;HPM_P2
2022/04/18 00:02:24;;;;;;;16.65;9.95;;;;;;;6.75;57.07;102049.00;4964900;28;20129;-65
2022/04/18 00:04:50;;;;;;;18.52;9.60;;;;;;;6.76;57.97;102049.84;4965004;28;20082;-65
2022/04/18 00:07:16;;;;;;;14.60;9.40;;;;;;;6.70;57.02;102045.59;4964808;28;20035;-65
2022/04/18 00:09:41;;;;;;;17.38;10.23;;;;;;;6.61;57.76;102048.50;4965014;28;20848;-65
2022/04/18 00:12:08;;;;;;;15.90;9.55;;;;;;;6.48;58.90;102047.97;4965222;28;20061;-65
2022/04/18 00:14:33;;;;;;;20.63;10.00;;;;;;;6.56;58.18;102042.44;4965026;28;21045;-65
2022/04/18 00:16:59;;;;;;;18.58;10.10;;;;;;;6.61;56.75;102043.19;4964768;28;20525;-64
2022/04/18 00:19:25;;;;;;;20.30;10.05;;;;;;;6.62;56.57;102044.06;4947466;28;20042;-65
2022/04/18 00:21:54;;;;;;;16.55;8.95;;;;;;;6.68;56.70;102038.63;4947402;28;20050;-65
2022/04/18 00:24:21;;;;;;;17.73;10.07;;;;;;;6.53;57.26;102039.03;4964771;28;20173;-66
2022/04/18 00:26:47;;;;;;;22.80;10.90;;;;;;;6.45;56.16;102037.44;4946676;28;20097;-66
2022/04/18 00:29:12;;;;;;;19.02;8.85;;;;;;;6.47;55.51;102043.56;4964277;28;20039;-65
2022/04/18 00:31:38;;;;;;;21.33;10.18;;;;;;;6.42;55.40;102042.81;4963936;28;20031;-65
2022/04/18 00:34:04;;;;;;;17.67;10.02;;;;;;;6.44;56.94;102037.50;4946308;28;20054;-65
2022/04/18 00:36:30;;;;;;;19.75;9.95;;;;;;;6.28;58.27;102044.13;4946765;28;20439;-65
2022/04/18 00:38:55;;;;;;;18.98;9.93;;;;;;;6.17;57.28;102034.66;4963854;28;20047;-65
2022/04/18 00:41:21;;;;;;;17.27;10.57;;;;;;;6.13;57.14;102033.00;4946255;28;20038;-65
2022/04/18 00:43:48;;;;;;;16.08;9.55;;;;;;;6.17;57.10;102032.00;4964005;28;20841;-65
2022/04/18 00:46:16;;;;;;;15.13;9.38;;;;;;;6.18;57.13;102030.25;4946668;28;20059;-65
2022/04/18 00:48:42;;;;;;;17.80;8.85;;;;;;;6.12;59.16;102033.03;4964325;28;20117;-65
2022/04/18 00:51:11;;;;;;;19.73;10.05;;;;;;;5.93;59.78;102027.34;4946618;28;20045;-66
2022/04/18 00:53:38;;;;;;;18.83;9.73;;;;;;;5.86;59.38;102037.16;4946394;28;20484;-65
2022/04/18 00:56:05;;;;;;;19.35;9.63;;;;;;;5.86;59.75;102031.00;4964372;28;20042;-65
2022/04/18 00:58:30;;;;;;;18.50;9.23;;;;;;;5.68;61.60;102033.22;4964016;28;20046;-65
2022/04/18 01:00:56;;;;;;;16.95;9.77;;;;;;;5.75;60.90;102036.56;4946305;28;20109;-65
2022/04/18 01:03:22;;;;;;;18.52;9.15;;;;;;;5.86;60.39;102034.53;4945687;28;20046;-65
2022/04/18 01:05:48;;;;;;;17.00;9.02;;;;;;;5.77;60.45;102028.59;4964354;28;20741;-65
2022/04/18 01:08:14;;;;;;;16.88;10.20;;;;;;;5.65;61.21;102030.63;4946710;28;20487;-65
2022/04/18 01:10:40;;;;;;;17.48;9.75;;;;;;;5.49;62.01;102025.75;4946715;28;20483;-65
2022/04/18 01:13:05;;;;;;;16.95;10.00;;;;;;;5.35;62.58;102032.19;4964802;28;20045;-65
2022/04/18 01:15:40;;;;;;;16.60;9.90;;;;;;;5.43;61.94;102027.63;4946575;28;20045;-65
2022/04/18 01:18:24;;;;;;;17.85;9.80;;;;;;;5.50;62.28;102024.84;4963886;28;20564;-65
2022/04/18 01:21:10;;;;;;;15.05;8.90;;;;;;;5.40;60.76;102018.88;4946022;28;20057;-65
2022/04/18 01:23:59;;;;;;;18.73;10.73;;;;;;;5.35;60.49;102026.91;4885390;29;20628;-65
2022/04/18 01:29:29;;;;;;;20.27;10.32;;;;;;;5.54;60.25;102022.09;4870825;29;20060;-66
2022/04/18 01:31:54;;;;;;;15.70;8.88;;;;;;;5.60;59.96;102015.78;4867871;29;20766;-65
2022/04/18 01:34:20;;;;;;;16.95;9.77;;;;;;;5.66;59.92;102018.25;4868030;29;21188;-65
2022/04/18 01:36:45;;;;;;;20.30;11.02;;;;;;;5.67;59.17;102012.97;4883896;29;20127;-65
2022/04/18 01:39:11;;;;;;;18.30;10.45;;;;;;;5.55;60.06;102017.66;4867889;29;20041;-65
2022/04/18 01:41:37;;;;;;;18.98;10.70;;;;;;;5.51;60.69;102016.84;4868360;29;20064;-65
2022/04/18 01:44:03;;;;;;;17.80;11.63;;;;;;;5.44;61.39;102012.63;4883661;29;20140;-65
2022/04/18 01:46:28;;;;;;;16.65;9.90;;;;;;;5.42;61.48;102017.97;4868342;29;20068;-65
2022/04/18 01:48:54;;;;;;;24.90;11.98;;;;;;;5.46;60.62;102002.84;4868125;29;20056;-64
2022/04/18 01:51:20;;;;;;;17.58;9.88;;;;;;;5.33;61.91;102004.94;4868073;29;20037;-65
2022/04/18 01:53:47;;;;;;;22.08;10.70;;;;;;;5.22;62.44;102008.69;4867762;29;20416;-64
2022/04/18 01:56:12;;;;;;;18.38;10.82;;;;;;;5.01;63.15;102005.63;4883246;29;20127;-63
2022/04/18 01:58:37;;;;;;;18.60;10.68;;;;;;;5.07;62.95;102005.53;4883537;29;20765;-64
2022/04/18 02:01:03;;;;;;;20.35;10.40;;;;;;;5.09;62.81;102008.13;4896813;29;20617;-63
2022/04/18 02:03:29;;;;;;;17.38;10.38;;;;;;;5.27;62.15;102006.81;4926345;29;20035;-64
2022/04/18 02:05:55;;;;;;;19.58;11.05;;;;;;;5.24;61.38;102005.13;4943787;29;20114;-64
2022/04/18 02:08:23;;;;;;;20.55;11.63;;;;;;;5.12;61.00;101997.47;4925963;29;20158;-64
2022/04/18 02:10:48;;;;;;;21.63;10.82;;;;;;;5.06;61.54;101998.47;4926271;29;20035;-63
2022/04/18 02:13:19;;;;;;;20.38;11.65;;;;;;;5.10;61.76;101997.50;4911151;29;20047;-63
2022/04/18 02:15:45;;;;;;;21.02;11.52;;;;;;;4.83;63.90;101998.13;4942960;28;20550;-64
2022/04/18 02:18:11;;;;;;;20.85;10.05;;;;;;;4.73;64.19;101999.22;4937785;29;20039;-64
2022/04/18 02:20:36;;;;;;;16.25;9.88;;;;;;;4.52;64.76;101992.56;4943509;28;20039;-64
2022/04/18 02:23:02;;;;;;;19.73;10.43;;;;;;;4.56;64.31;101984.53;4962803;28;20190;-64
2022/04/18 02:25:27;;;;;;;22.63;11.25;;;;;;;4.42;64.87;101986.63;4944860;28;20054;-66
2022/04/18 02:27:58;;;;;;;19.25;11.18;;;;;;;4.52;64.17;101982.91;4929405;28;20062;-65
2022/04/18 02:30:23;;;;;;;22.30;11.43;;;;;;;4.55;64.92;101980.16;4944956;28;20467;-65
2022/04/18 02:32:50;;;;;;;17.33;10.55;;;;;;;4.44;64.56;101983.94;4944768;28;20070;-65
2022/04/18 02:35:21;;;;;;;24.98;11.18;;;;;;;4.41;64.38;101975.16;4962164;28;20782;-65
2022/04/18 02:37:49;;;;;;;;;;;;;;;4.49;64.37;101980.31;4942382;28;20039;-65
2022/04/18 02:40:20;;;;;;;20.23;11.70;;;;;;;4.37;64.48;101975.28;4924998;29;19929;-65
2022/04/18 02:42:46;;;;;;;19.88;10.95;;;;;;;4.20;66.10;101980.84;4941165;29;20039;-65
2022/04/18 02:45:15;;;;;;;23.80;12.10;;;;;;;4.10;66.16;101985.44;4924883;29;20062;-65
2022/04/18 02:47:59;;;;;;;21.92;11.15;;;;;;;4.07;66.34;101974.06;4942560;29;20109;-65
2022/04/18 02:50:25;;;;;;;20.38;10.05;;;;;;;4.05;66.67;101974.09;4925337;29;20496;-65
2022/04/18 02:52:51;;;;;;;22.67;11.77;;;;;;;3.96;67.42;101971.59;4925054;29;20047;-65
2022/04/18 02:55:19;;;;;;;18.00;10.38;;;;;;;3.94;67.25;101973.41;4909368;29;20511;-65
2022/04/18 02:57:45;;;;;;;18.95;10.55;;;;;;;3.95;67.81;101966.38;4925050;29;20054;-65
2022/04/18 03:00:12;;;;;;;18.15;10.57;;;;;;;3.87;68.29;101962.09;4925047;29;20035;-65
2022/04/18 03:02:39;;;;;;;16.58;8.95;;;;;;;3.73;68.97;101958.84;4925492;29;20039;-65
2022/04/18 03:05:07;;;;;;;15.10;9.63;;;;;;;3.74;69.66;101957.06;4942865;29;20090;-65
2022/04/18 03:07:33;;;;;;;17.23;10.43;;;;;;;3.76;69.45;101953.47;4925475;29;20035;-65
2022/04/18 03:09:59;;;;;;;16.58;10.07;;;;;;;3.74;69.98;101951.78;4925590;29;20039;-65
2022/04/18 03:12:25;;;;;;;17.27;9.48;;;;;;;3.66;70.81;101948.41;4925401;29;20043;-65
2022/04/18 03:14:50;;;;;;;14.95;9.45;;;;;;;3.73;70.53;101948.28;4925239;29;20129;-65
2022/04/18 03:17:16;;;;;;;17.17;10.00;;;;;;;3.63;71.08;101947.56;4948228;28;20101;-65
2022/04/18 03:19:42;;;;;;;20.45;9.93;;;;;;;3.62;70.42;101947.59;4943893;28;20506;-65
2022/04/18 03:22:08;;;;;;;15.77;9.77;;;;;;;3.54;71.29;101949.47;4944471;28;20038;-65
2022/04/18 03:24:37;;;;;;;17.02;8.70;;;;;;;3.47;71.88;101951.34;4944232;28;20153;-65
2022/04/18 03:27:08;;;;;;;15.27;10.07;;;;;;;3.38;71.85;101949.72;4945498;28;20046;-65
2022/04/18 03:29:37;;;;;;;17.95;10.15;;;;;;;3.30;71.84;101953.38;4965933;28;20091;-65
2022/04/18 03:32:03;;;;;;;18.38;10.65;;;;;;;3.41;71.87;101940.00;4948203;28;20070;-64
2022/04/18 03:34:31;;;;;;;13.75;8.77;;;;;;;3.37;70.88;101957.69;4965940;28;20042;-65
2022/04/18 03:39:56;;;;;;;21.63;9.13;;;;;;;3.50;70.69;101951.28;4948182;28;20034;-65
2022/04/18 03:42:30;;;;;;;20.63;10.60;;;;;;;3.44;70.58;101947.88;4948004;28;20718;-65
2022/04/18 03:45:00;;;;;;;17.23;10.75;;;;;;;3.40;70.64;101956.75;4946770;28;20385;-65
2022/04/18 03:47:27;;;;;;;20.63;10.82;;;;;;;3.28;71.16;101953.41;4962130;28;20142;-64
2022/04/18 03:49:54;;;;;;;18.13;10.05;;;;;;;3.16;70.91;101961.47;4941768;28;20125;-65
2022/04/18 03:52:19;;;;;;;20.27;10.63;;;;;;;2.95;72.35;101954.75;4945506;28;20122;-65
2022/04/18 03:54:46;;;;;;;13.07;9.40;;;;;;;2.98;72.87;101957.34;4946602;28;20030;-65
2022/04/18 03:57:15;;;;;;;17.90;9.73;;;;;;;3.01;72.05;101948.53;4946879;28;20038;-65
2022/04/18 03:59:46;;;;;;;18.98;10.60;;;;;;;3.01;72.13;101949.44;4946980;28;20053;-65
2022/04/18 04:02:11;;;;;;;17.70;9.45;;;;;;;3.15;72.38;101951.84;4947665;28;20494;-64
2022/04/18 04:04:43;;;;;;;18.70;10.68;;;;;;;3.04;71.93;101949.34;4947293;28;20946;-64
2022/04/18 04:07:09;;;;;;;23.00;10.95;;;;;;;3.02;71.67;101948.53;4947704;28;20035;-65
2022/04/18 04:09:36;;;;;;;19.85;11.07;;;;;;;3.11;71.33;101950.13;4947918;28;20057;-64
2022/04/18 04:12:05;;;;;;;20.40;10.45;;;;;;;2.91;72.39;101955.69;4947336;28;20034;-65
2022/04/18 04:14:38;;;;;;;18.70;10.25;;;;;;;2.82;72.83;101959.34;4947350;28;20053;-65
2022/04/18 04:17:04;;;;;;;21.98;11.57;;;;;;;2.67;73.75;101953.41;4965203;28;20138;-65
2022/04/18 04:19:30;;;;;;;17.63;10.48;;;;;;;2.77;73.97;101955.88;4946680;28;20042;-65
2022/04/18 04:21:57;;;;;;;24.50;13.07;;;;;;;2.75;74.82;101957.66;4947312;28;20485;-65
2022/04/18 04:24:22;;;;;;;17.08;11.35;;;;;;;2.73;73.93;101953.31;4946895;28;20043;-64
2022/04/18 04:26:50;;;;;;;18.15;10.82;;;;;;;2.80;73.77;101955.84;4931238;28;20039;-65
2022/04/18 04:29:22;;;;;;;19.10;11.70;;;;;;;2.95;72.39;101954.75;4931959;28;20499;-65
2022/04/18 04:32:11;;;;;;;25.65;12.05;;;;;;;2.92;72.42;101954.81;4956846;28;20057;-64
2022/04/18 04:34:40;;;;;;;25.90;13.88;;;;;;;2.90;71.78;101951.31;4947242;28;20035;-65
2022/04/18 04:37:24;;;;;;;23.60;12.82;;;;;;;3.09;70.73;101937.00;4965767;28;20152;-65
2022/04/18 04:39:55;;;;;;;16.92;12.30;;;;;;;3.00;70.94;101937.13;4946627;28;20048;-65
2022/04/18 04:42:23;;;;;;;26.27;11.85;;;;;;;3.12;71.07;101941.34;4947594;28;20038;-65
2022/04/18 04:44:49;;;;;;;18.52;11.73;;;;;;;3.33;70.94;101942.78;4979134;28;20054;-65
2022/04/18 04:47:21;;;;;;;23.60;12.02;;;;;;;3.57;70.01;101937.13;4947485;28;20405;-65
2022/04/18 04:49:47;;;;;;;20.55;10.88;;;;;;;3.96;68.52;101939.06;4979587;28;20049;-65
2022/04/18 04:52:22;;;;;;;18.58;11.60;;;;;;;4.40;67.17;101939.09;4947547;28;20042;-65
2022/04/18 04:54:49;;;;;;;20.17;11.93;;;;;;;4.73;65.69;101941.09;4947538;28;20142;-65
2022/04/18 04:57:20;;;;;;;22.80;11.80;;;;;;;5.13;64.12;101946.34;4950733;28;20042;-65
2022/04/18 05:00:19;;;;;;;19.50;11.35;;;;;;;5.52;62.63;101936.56;4950534;28;20043;-65
2022/04/18 05:03:08;;;;;;;24.75;12.45;;;;;;;5.91;61.75;101937.38;4936892;28;20078;-65
2022/04/18 05:05:33;;;;;;;19.45;11.88;;;;;;;6.04;60.10;101939.72;4968209;28;20223;-65
2022/04/18 05:08:00;;;;;;;23.48;13.00;;;;;;;5.16;63.08;101948.91;4950005;28;20027;-65
2022/04/18 05:10:28;;;;;;;25.33;12.13;;;;;;;5.14;64.10;101948.94;4950129;28;20042;-64
2022/04/18 05:12:54;;;;;;;18.30;11.60;;;;;;;5.44;63.58;101939.41;4967103;28;20753;-65
2022/04/18 05:15:20;;;;;;;24.38;12.52;;;;;;;5.65;61.81;101939.78;4948479;28;20070;-65
2022/04/18 05:18:15;;;;;;;14.95;10.60;;;;;;;5.20;64.06;101950.59;4948218;28;20026;-65
2022/04/18 05:20:44;;;;;;;19.35;11.80;;;;;;;5.77;61.75;101941.25;4939578;28;20097;-65
2022/04/18 05:23:11;;;;;;;19.75;10.88;;;;;;;6.05;61.07;101937.00;4960255;28;20085;-65
2022/04/18 05:25:37;;;;;;;19.25;11.50;;;;;;;5.60;62.92;101944.34;4939546;28;20142;-65
2022/04/18 05:28:03;;;;;;;20.35;11.90;;;;;;;5.75;62.96;101951.03;4942852;28;20487;-65
2022/04/18 05:30:41;;;;;;;18.50;12.18;;;;;;;5.82;62.37;101945.50;4938050;28;20381;-63
2022/04/18 05:33:07;;;;;;;25.95;11.43;;;;;;;5.83;63.68;101941.13;4944795;28;20026;-65
2022/04/18 05:35:43;;;;;;;21.17;12.35;;;;;;;5.80;62.99;101944.69;4937938;28;20495;-65
2022/04/18 05:38:09;;;;;;;18.52;12.05;;;;;;;5.29;66.21;101954.78;4946748;28;20065;-65
2022/04/18 05:40:44;;;;;;;18.75;11.77;;;;;;;5.62;65.12;101942.50;4947130;28;20038;-65
2022/04/18 05:43:10;;;;;;;17.48;11.13;;;;;;;5.63;65.11;101949.56;4944790;28;20050;-65
2022/04/18 05:45:37;;;;;;;25.90;12.38;;;;;;;5.86;64.93;101947.19;4964653;28;20172;-64
2022/04/18 05:48:12;;;;;;;21.08;12.68;;;;;;;6.49;61.78;101945.50;4947461;28;20054;-65
2022/04/18 05:50:45;;;;;;;24.73;14.57;;;;;;;7.24;59.94;101944.09;4964819;28;20054;-66
2022/04/18 05:53:29;;;;;;;17.95;12.98;;;;;;;7.78;58.49;101942.31;4946323;28;20580;-66
2022/04/18 05:56:04;;;;;;;17.98;12.02;;;;;;;8.30;58.13;101936.06;4959165;28;20058;-64
2022/04/18 05:59:02;;;;;;;26.67;13.80;;;;;;;9.03;53.77;101939.53;4865775;29;20064;-63
2022/04/18 06:01:51;;;;;;;18.10;13.40;;;;;;;9.33;55.16;101940.13;4850620;29;20164;-65
2022/04/18 06:04:26;;;;;;;24.10;13.48;;;;;;;9.73;56.54;101942.00;4850809;29;20064;-66
2022/04/18 06:07:15;;;;;;;17.63;12.63;;;;;;;10.35;54.87;101941.13;4866029;29;20442;-66
2022/04/18 06:09:41;;;;;;;22.10;12.27;;;;;;;9.56;56.14;101945.38;4840019;29;20049;-66
2022/04/18 06:12:07;;;;;;;22.35;11.75;;;;;;;10.36;54.81;101941.97;4849729;29;20068;-65
2022/04/18 06:14:37;;;;;;;21.38;13.10;;;;;;;10.80;55.20;101949.75;4849925;29;20094;-75
2022/04/18 06:17:04;;;;;;;20.50;11.38;;;;;;;11.78;49.94;101937.81;4850125;29;20040;-65
2022/04/18 06:19:29;;;;;;;18.60;10.48;;;;;;;11.79;50.27;101931.53;4850117;29;20040;-65
2022/04/18 06:21:55;;;;;;;14.13;8.45;;;;;;;12.51;47.18;101926.94;4851038;29;20176;-65
2022/04/18 06:24:21;;;;;;;13.85;7.70;;;;;;;12.56;45.13;101932.91;4851203;29;20038;-65
2022/04/18 06:26:55;;;;;;;11.25;7.85;;;;;;;12.77;44.97;101931.72;4848019;29;20050;-66
2022/04/18 06:29:22;;;;;;;10.57;7.15;;;;;;;13.67;43.79;101921.25;4837743;29;20108;-65
2022/04/18 06:31:53;;;;;;;7.25;5.22;;;;;;;13.23;43.98;101933.66;4849199;29;20045;-65
2022/04/18 06:34:20;;;;;;;10.27;6.28;;;;;;;14.27;40.96;101928.38;4893630;29;20085;-65
2022/04/18 06:36:47;;;;;;;7.30;4.78;;;;;;;14.15;42.50;101929.97;4926785;29;20066;-65
2022/04/18 06:39:21;;;;;;;8.63;4.93;;;;;;;14.48;38.23;101926.19;4939664;28;20070;-66
2022/04/18 06:41:51;;;;;;;6.85;4.93;;;;;;;14.61;38.65;101929.84;4965411;28;20100;-67
2022/04/18 06:44:21;;;;;;;6.72;4.47;;;;;;;15.08;40.60;101934.00;4965580;28;20396;-66
2022/04/18 06:46:51;;;;;;;5.82;4.35;;;;;;;15.40;36.75;101931.03;4981508;28;20054;-66
2022/04/18 06:49:37;;;;;;;7.00;5.03;;;;;;;14.82;37.85;101933.00;4953862;28;20039;-66
2022/04/18 06:52:46;;;;;;;6.40;4.65;;;;;;;13.92;36.87;101928.69;4963458;28;20089;-65
2022/04/18 06:56:58;;;;;;;9.50;5.28;;;;;;;14.28;36.80;101934.59;4949627;28;20762;-66
2022/04/18 06:58:19;;;;;;;8.57;5.20;;;;;;;13.74;37.31;101932.44;4945896;28;20042;-65
2022/04/18 07:00:44;;;;;;;8.35;5.07;;;;;;;13.30;38.77;101937.72;4945253;28;20145;-65
2022/04/18 07:03:13;;;;;;;7.72;4.95;;;;;;;14.33;39.30;101933.34;4944725;28;20058;-65
2022/04/18 07:05:42;;;;;;;7.32;4.55;;;;;;;14.92;39.32;101935.97;4946077;28;20754;-65
2022/04/18 07:08:08;;;;;;;9.27;4.90;;;;;;;14.50;38.27;101930.50;4945394;28;20035;-66
2022/04/18 07:10:34;;;;;;;8.48;5.05;;;;;;;15.11;36.86;101927.56;4945477;28;20496;-65
2022/04/18 07:12:59;;;;;;;7.20;4.43;;;;;;;15.35;36.96;101922.41;4936796;28;20046;-65
2022/04/18 07:15:25;;;;;;;7.97;4.45;;;;;;;14.69;38.34;101922.16;4982371;28;20042;-66
2022/04/18 07:17:54;;;;;;;7.28;4.70;;;;;;;15.20;37.02;101921.59;4949204;28;20121;-66
2022/04/18 07:20:20;;;;;;;6.30;4.78;;;;;;;15.56;37.32;101923.66;4982196;28;20042;-65
2022/04/18 07:22:46;;;;;;;7.45;5.03;;;;;;;15.52;36.33;101927.53;4929289;28;20097;-65
2022/04/18 07:25:13;;;;;;;5.28;4.10;;;;;;;15.21;37.11;101937.63;4945082;28;20035;-65
2022/04/18 07:27:44;;;;;;;7.50;4.50;;;;;;;15.55;36.87;101927.31;4945789;28;20085;-65
2022/04/18 07:30:10;;;;;;;6.28;4.55;;;;;;;15.59;35.66;101930.66;4945692;28;20137;-65
2022/04/18 07:32:41;;;;;;;6.50;4.38;;;;;;;15.77;34.70;101921.41;4945768;28;20079;-66
2022/04/18 07:35:11;;;;;;;8.77;4.90;;;;;;;15.25;36.09;101922.13;4944902;28;20895;-66
2022/04/18 07:40:32;;;;;;;6.97;4.28;;;;;;;15.10;36.17;101921.31;4946042;28;20557;-66
2022/04/18 07:43:00;;;;;;;6.95;4.30;;;;;;;14.88;37.30;101927.22;4963630;28;20026;-65
2022/04/18 07:49:32;;;;;;;7.68;4.43;;;;;;;15.22;37.95;101920.53;4979031;28;20083;-66
2022/04/18 07:51:58;;;;;;;7.50;4.57;;;;;;;15.29;35.87;101923.66;4941122;28;20043;-65
2022/04/18 07:54:39;;;;;;;9.57;3.93;;;;;;;15.43;35.32;101914.69;4945349;28;20062;-65
2022/04/18 07:57:05;;;;;;;8.65;3.58;;;;;;;15.13;37.03;101913.06;4947411;28;20058;-66
2022/04/18 07:59:44;;;;;;;7.03;3.33;;;;;;;15.66;35.72;101914.06;4947824;28;20065;-65
2022/04/18 08:02:10;;;;;;;3.88;3.03;;;;;;;16.25;35.68;101911.75;4947648;28;20042;-65
2022/04/18 08:04:54;;;;;;;5.15;3.60;;;;;;;16.52;35.87;101903.56;4964745;28;20110;-72
2022/04/18 08:07:27;;;;;;;3.45;3.15;;;;;;;16.52;35.05;101908.09;4946594;28;20043;-65
2022/04/18 08:09:53;;;;;;;5.22;3.00;;;;;;;15.97;35.30;101907.44;4930215;28;20467;-65
2022/04/18 08:12:18;;;;;;;4.63;2.95;;;;;;;16.14;33.50;101903.56;4963262;28;20043;-65
2022/04/18 08:15:16;;;;;;;3.72;2.95;;;;;;;16.35;35.09;101903.88;4939756;28;20613;-65
2022/04/18 08:17:42;;;;;;;4.50;3.00;;;;;;;16.91;35.00;101903.50;4949517;28;20038;-65
2022/04/18 08:20:08;;;;;;;3.83;3.20;;;;;;;16.82;33.94;101905.06;4951957;28;20077;-71
2022/04/18 08:22:34;;;;;;;6.60;3.40;;;;;;;15.98;35.66;101908.31;4935936;28;20046;-65
2022/04/18 08:25:38;;;;;;;4.80;2.80;;;;;;;16.39;35.78;101908.09;4908154;29;20059;-72
2022/04/18 08:28:32;;;;;;;4.05;2.90;;;;;;;16.63;35.67;101910.00;4856963;29;20048;-65
2022/04/18 08:30:59;;;;;;;4.57;2.92;;;;;;;15.99;36.03;101910.88;4853466;29;20044;-64
2022/04/18 08:33:47;;;;;;;3.65;2.72;;;;;;;16.66;37.49;101913.31;4863451;29;20355;-65
2022/04/18 08:36:13;;;;;;;4.43;3.30;;;;;;;16.54;35.52;101908.84;4870282;29;20601;-65
2022/04/18 08:38:38;;;;;;;4.95;3.22;;;;;;;17.01;36.93;101907.25;4853318;29;20417;-65
2022/04/18 08:41:37;;;;;;;;;;;;;;;16.44;34.65;101905.94;4849131;29;20044;-66
2022/04/18 08:44:04;;;;;;;6.93;3.60;;;;;;;16.48;33.82;101906.59;4849331;29;19943;-65
2022/04/18 08:46:31;;;;;;;4.03;2.80;;;;;;;16.73;36.15;101901.19;4848856;29;20206;-66
2022/04/18 08:54:28;;;;;;;5.43;3.17;;;;;;;17.01;34.93;101899.16;4851190;29;20148;-66
2022/04/18 08:56:55;;;;;;;5.97;2.72;;;;;;;17.40;34.06;101889.94;4896901;29;20050;-66
2022/04/18 08:59:21;;;;;;;4.35;2.88;;;;;;;17.17;34.80;101896.19;4907278;29;20534;-66
2022/04/18 09:01:50;;;;;;;5.28;2.90;;;;;;;17.28;36.30;101897.13;4890623;29;20048;-66
2022/04/18 09:04:20;;;;;;;4.03;2.80;;;;;;;17.48;35.01;101894.78;4908978;28;20038;-65
2022/04/18 09:06:48;;;;;;;5.32;3.13;;;;;;;17.73;34.62;101901.88;4963998;28;20030;-66
2022/04/18 09:09:27;;;;;;;;;;;;;;;17.79;33.38;101890.63;4963217;28;20050;-65
2022/04/18 09:11:54;;;;;;;3.00;2.10;;;;;;;17.45;35.59;101895.84;4967353;28;19960;-65
2022/04/18 09:14:25;;;;;;;4.20;2.67;;;;;;;17.52;33.95;101883.63;4953618;28;20038;-65
2022/04/18 09:16:51;;;;;;;3.25;2.30;;;;;;;17.37;34.38;101883.91;4967225;28;20085;-64
2022/04/18 09:19:36;;;;;;;4.15;2.75;;;;;;;17.48;35.29;101882.16;4943932;28;20057;-64
2022/04/18 09:22:04;;;;;;;5.80;3.03;;;;;;;17.25;34.91;101886.56;4951148;28;20046;-64
2022/04/18 09:24:54;;;;;;;4.20;2.85;;;;;;;17.34;34.87;101879.63;4947696;28;20126;-64
2022/04/18 09:27:32;;;;;;;2.83;2.13;;;;;;;17.54;32.78;101881.66;4947025;28;20830;-64
2022/04/18 09:30:11;;;;;;;2.70;2.17;;;;;;;17.62;32.18;101878.41;4947852;28;20034;-65
2022/04/18 09:33:01;;;;;;;3.30;2.70;;;;;;;17.30;32.22;101876.28;4964328;28;20900;-64
2022/04/18 09:35:47;;;;;;;5.03;2.72;;;;;;;17.38;33.13;101873.03;4964073;28;20460;-64
2022/04/18 09:38:17;;;;;;;3.80;2.47;;;;;;;17.48;32.21;101865.97;4947470;28;20101;-65
2022/04/18 09:41:23;;;;;;;4.55;2.70;;;;;;;17.25;33.28;101867.69;4964978;28;20128;-64
2022/04/18 09:43:50;;;;;;;2.40;2.20;;;;;;;17.88;33.95;101865.63;4965732;28;20042;-65
2022/04/18 09:46:24;;;;;;;5.22;2.53;;;;;;;18.06;32.42;101868.72;4948868;28;20078;-64
2022/04/18 09:49:01;;;;;;;6.15;3.47;;;;;;;18.26;32.43;101861.72;4936815;29;20597;-64
2022/04/18 09:51:30;;;;;;;5.68;3.17;;;;;;;18.04;32.87;101862.59;4939309;29;20039;-65
2022/04/18 09:54:03;;;;;;;5.47;2.78;;;;;;;18.42;32.45;101861.38;4964603;28;20043;-64
2022/04/18 09:56:29;;;;;;;6.53;3.47;;;;;;;18.19;32.65;101858.66;4965362;28;20138;-64
2022/04/18 09:58:58;;;;;;;3.90;2.97;;;;;;;18.01;31.99;101855.56;4967225;28;20038;-64
2022/04/18 10:01:24;;;;;;;2.60;2.40;;;;;;;17.99;33.09;101856.69;4962679;28;20054;-65
2022/04/18 10:03:52;;;;;;;3.00;2.58;;;;;;;17.98;34.28;101860.38;4968493;28;20101;-65
2022/04/18 10:06:19;;;;;;;3.13;2.70;;;;;;;18.11;27.61;101855.72;4970704;28;20042;-64
2022/04/18 10:08:45;;;;;;;1.95;1.85;;;;;;;18.62;31.27;101845.28;4985501;28;20041;-64
2022/04/18 10:11:14;;;;;;;2.40;2.00;;;;;;;18.93;31.05;101852.75;4985092;28;20038;-65
2022/04/18 10:13:39;;;;;;;2.40;1.88;;;;;;;18.59;30.88;101841.97;4985321;28;20447;-64
2022/04/18 10:16:06;;;;;;;3.67;2.30;;;;;;;19.36;28.59;101834.63;4984751;28;20137;-65
2022/04/18 10:18:46;;;;;;;2.63;2.13;;;;;;;18.75;30.93;101836.19;4966460;28;20086;-64
2022/04/18 10:21:21;;;;;;;2.30;2.05;;;;;;;18.98;27.87;101832.47;4974990;28;20031;-65
2022/04/18 10:24:12;;;;;;;2.63;1.80;;;;;;;18.66;27.14;101828.81;4963725;28;20050;-64
2022/04/18 10:26:55;;;;;;;1.95;1.63;;;;;;;18.71;28.34;101837.44;4946960;28;20098;-65
2022/04/18 10:29:27;;;;;;;2.55;2.03;;;;;;;18.49;28.07;101827.50;4944595;29;20047;-64
2022/04/18 10:31:53;;;;;;;3.05;2.33;;;;;;;18.93;29.72;101823.03;4977343;28;20061;-64
2022/04/18 10:34:23;;;;;;;2.72;1.67;;;;;;;19.01;30.73;101823.22;4961076;28;20034;-66
2022/04/18 10:36:53;;;;;;;2.70;1.98;;;;;;;18.80;27.33;101836.69;4963334;28;20068;-64
2022/04/18 10:39:19;;;;;;;4.07;1.83;;;;;;;19.52;28.26;101825.22;4967329;28;20487;-64
2022/04/18 10:41:50;;;;;;;3.58;1.85;;;;;;;18.59;25.78;101836.56;4966278;28;20042;-64
2022/04/18 10:44:17;;;;;;;2.30;1.55;;;;;;;18.81;28.23;101827.56;4962820;28;20128;-67
2022/04/18 10:46:52;;;;;;;3.65;1.50;;;;;;;18.91;28.31;101822.28;4969083;28;20039;-64
2022/04/18 10:49:19;;;;;;;2.42;1.42;;;;;;;18.88;27.95;101818.84;4950353;28;20046;-64
2022/04/18 10:51:51;;;;;;;2.83;1.80;;;;;;;19.62;27.44;101813.50;4961074;28;20129;-64
2022/04/18 10:54:19;;;;;;;4.18;2.05;;;;;;;19.62;27.72;101810.78;4972676;28;20069;-64
2022/04/18 10:56:48;;;;;;;2.72;1.90;;;;;;;18.96;25.37;101811.94;4973801;28;20042;-64
2022/04/18 10:59:15;;;;;;;2.92;1.92;;;;;;;19.43;26.61;101810.66;4968547;28;20035;-64
2022/04/18 11:01:42;;;;;;;1.98;1.40;;;;;;;19.67;27.02;101808.53;4978632;28;20042;-65
2022/04/18 11:04:08;;;;;;;1.83;1.60;;;;;;;19.44;25.16;101806.94;4979154;28;20133;-64
2022/04/18 11:06:36;;;;;;;4.28;2.28;;;;;;;19.36;27.15;101815.69;4963524;28;20057;-64
2022/04/18 11:09:06;;;;;;;2.15;1.65;;;;;;;19.19;24.92;101805.47;4962519;28;20043;-64
2022/04/18 11:11:41;;;;;;;1.80;1.42;;;;;;;18.91;25.36;101809.63;4945849;28;20124;-65
2022/04/18 11:14:18;;;;;;;2.38;1.77;;;;;;;19.19;29.19;101813.59;4948883;28;20047;-64
2022/04/18 11:16:43;;;;;;;2.72;1.88;;;;;;;18.96;27.88;101798.41;4963224;28;20054;-65
2022/04/18 11:19:20;;;;;;;3.55;2.30;;;;;;;18.76;29.50;101810.88;4962208;28;20039;-64
2022/04/18 11:21:55;;;;;;;3.13;2.30;;;;;;;18.58;27.24;101814.09;4958474;28;20125;-65
2022/04/18 11:24:49;;;;;;;3.53;2.38;;;;;;;18.54;26.75;101803.66;4956002;28;20443;-64
2022/04/18 11:27:16;;;;;;;4.38;2.45;;;;;;;19.19;26.25;101797.34;4964183;28;20129;-64
2022/04/18 11:29:53;;;;;;;2.47;2.17;;;;;;;19.33;27.08;101794.34;4962340;28;20046;-64
2022/04/18 11:32:21;;;;;;;2.70;2.10;;;;;;;19.50;28.70;101782.06;4961868;28;20051;-64
2022/04/18 11:34:49;;;;;;;2.75;1.95;;;;;;;19.14;27.50;101784.22;4943538;28;20790;-65
2022/04/18 11:37:45;;;;;;;2.97;2.22;;;;;;;19.80;29.89;101780.44;4944856;28;20105;-65
2022/04/18 11:40:16;;;;;;;2.88;2.17;;;;;;;19.56;27.03;101786.09;4947541;28;20073;-65
2022/04/18 11:42:43;;;;;;;3.15;2.08;;;;;;;19.27;28.86;101783.16;4944105;28;20055;-65
2022/04/18 11:45:20;;;;;;;2.95;2.45;;;;;;;19.66;28.82;101779.78;4956552;28;20039;-66
2022/04/18 11:47:47;;;;;;;4.80;2.67;;;;;;;19.12;27.24;101782.63;4952847;28;20823;-65
2022/04/18 11:50:15;;;;;;;4.03;2.47;;;;;;;19.05;27.27;101781.44;4946947;29;20066;-65
2022/04/18 11:52:41;;;;;;;4.30;2.03;;;;;;;19.33;27.85;101782.66;4929248;29;20487;-69
2022/04/18 11:55:09;;;;;;;2.55;2.25;;;;;;;19.25;28.70;101783.31;4930263;28;20051;-65
2022/04/18 11:57:37;;;;;;;3.28;2.53;;;;;;;19.79;27.81;101779.56;4945887;28;20176;-65